Terminal Aerodrome Forecast
Issued by NWS

Home | Current Version | Previous Version | Text Only | Print | Product List | Glossary On
Versions: 1 2 3 4 5 6 7 8 9 10 11 12 13 14 15 16 17 18 19 20 21 22 23 24
000
FTUS46 KOTX 282338
TAFMWH
TAF
KMWH 282338Z 2900/2924 22007KT P6SM SKC
     FM290600 34005KT P6SM SKC
     FM291100 36005KT P6SM SKC
     FM291900 22008KT P6SM SKC=

USA.gov is the U.S. government's official web portal to all federal, state and local government web resources and services.